sensor_id;sensor_type;location;lat;lon;timestamp;temperature;humidity
32187;DHT22;18686;53.084;8.872;2023-05-18T00:00:55;6.60;99.60
32187;DHT22;18686;53.084;8.872;2023-05-18T00:03:25;6.60;99.70
32187;DHT22;18686;53.084;8.872;2023-05-18T00:05:55;6.60;99.70
32187;DHT22;18686;53.084;8.872;2023-05-18T00:08:30;6.50;99.90
32187;DHT22;18686;53.084;8.872;2023-05-18T00:10:59;6.50;99.90
32187;DHT22;18686;53.084;8.872;2023-05-18T00:13:28;6.50;99.90
32187;DHT22;18686;53.084;8.872;2023-05-18T00:15:57;6.50;99.90
32187;DHT22;18686;53.084;8.872;2023-05-18T00:18:25;6.40;99.90
32187;DHT22;18686;53.084;8.872;2023-05-18T00:20:54;6.40;99.90
32187;DHT22;18686;53.084;8.872;2023-05-18T00:23:26;6.40;99.90
32187;DHT22;18686;53.084;8.872;2023-05-18T00:25:56;6.40;99.90
32187;DHT22;18686;53.084;8.872;2023-05-18T00:28:27;6.40;99.90
32187;DHT22;18686;53.084;8.872;2023-05-18T00:30:56;6.40;99.90
32187;DHT22;18686;53.084;8.872;2023-05-18T00:33:25;6.40;99.90
32187;DHT22;18686;53.084;8.872;2023-05-18T00:35:53;6.40;99.90
32187;DHT22;18686;53.084;8.872;2023-05-18T00:38:23;6.40;99.90
32187;DHT22;18686;53.084;8.872;2023-05-18T00:40:51;6.40;99.90
32187;DHT22;18686;53.084;8.872;2023-05-18T00:43:20;6.40;99.90
32187;DHT22;18686;53.084;8.872;2023-05-18T00:45:51;6.40;99.90
32187;DHT22;18686;53.084;8.872;2023-05-18T00:48:19;6.50;99.90
32187;DHT22;18686;53.084;8.872;2023-05-18T00:50:47;6.50;99.90
32187;DHT22;18686;53.084;8.872;2023-05-18T00:53:16;6.50;99.90
32187;DHT22;18686;53.084;8.872;2023-05-18T00:55:44;6.50;99.90
32187;DHT22;18686;53.084;8.872;2023-05-18T00:58:13;6.50;99.90
32187;DHT22;18686;53.084;8.872;2023-05-18T01:00:41;6.50;99.90
32187;DHT22;18686;53.084;8.872;2023-05-18T01:03:11;6.50;99.90
32187;DHT22;18686;53.084;8.872;2023-05-18T01:05:41;6.50;99.90
32187;DHT22;18686;53.084;8.872;2023-05-18T01:08:09;6.50;99.90
32187;DHT22;18686;53.084;8.872;2023-05-18T01:10:40;6.50;99.90
32187;DHT22;18686;53.084;8.872;2023-05-18T01:13:17;6.60;99.90
32187;DHT22;18686;53.084;8.872;2023-05-18T01:15:52;6.60;99.90
32187;DHT22;18686;53.084;8.872;2023-05-18T01:18:27;6.60;99.90
32187;DHT22;18686;53.084;8.872;2023-05-18T01:20:58;6.60;99.90
32187;DHT22;18686;53.084;8.872;2023-05-18T01:23:59;6.70;99.90
32187;DHT22;18686;53.084;8.872;2023-05-18T01:26:33;6.70;99.90
32187;DHT22;18686;53.084;8.872;2023-05-18T01:29:05;6.80;99.90
32187;DHT22;18686;53.084;8.872;2023-05-18T01:31:35;6.80;99.90
32187;DHT22;18686;53.084;8.872;2023-05-18T01:34:04;6.90;99.90
32187;DHT22;18686;53.084;8.872;2023-05-18T01:36:32;7.00;99.90
32187;DHT22;18686;53.084;8.872;2023-05-18T01:39:01;7.00;99.90
32187;DHT22;18686;53.084;8.872;2023-05-18T01:41:33;7.10;99.90
32187;DHT22;18686;53.084;8.872;2023-05-18T01:44:06;7.20;99.90
32187;DHT22;18686;53.084;8.872;2023-05-18T01:46:41;7.20;99.90
32187;DHT22;18686;53.084;8.872;2023-05-18T01:49:16;7.30;99.90
32187;DHT22;18686;53.084;8.872;2023-05-18T01:51:49;7.30;99.90
32187;DHT22;18686;53.084;8.872;2023-05-18T01:54:18;7.40;99.90
32187;DHT22;18686;53.084;8.872;2023-05-18T01:56:51;7.40;99.90
32187;DHT22;18686;53.084;8.872;2023-05-18T01:59:22;7.50;99.90
32187;DHT22;18686;53.084;8.872;2023-05-18T02:01:51;7.50;99.90
32187;DHT22;18686;53.084;8.872;2023-05-18T02:04:26;7.50;99.90
32187;DHT22;18686;53.084;8.872;2023-05-18T02:06:55;7.60;99.90
32187;DHT22;18686;53.084;8.872;2023-05-18T02:09:23;7.60;99.90
32187;DHT22;18686;53.084;8.872;2023-05-18T02:11:52;7.60;99.90
32187;DHT22;18686;53.084;8.872;2023-05-18T02:14:23;7.60;99.90
32187;DHT22;18686;53.084;8.872;2023-05-18T02:16:51;7.60;99.90
32187;DHT22;18686;53.084;8.872;2023-05-18T02:19:20;7.70;99.90
32187;DHT22;18686;53.084;8.872;2023-05-18T02:21:48;7.70;99.90
32187;DHT22;18686;53.084;8.872;2023-05-18T02:24:17;7.70;99.90
32187;DHT22;18686;53.084;8.872;2023-05-18T02:26:45;7.70;99.90
32187;DHT22;18686;53.084;8.872;2023-05-18T02:29:15;7.80;99.90
32187;DHT22;18686;53.084;8.872;2023-05-18T02:31:43;7.80;99.90
32187;DHT22;18686;53.084;8.872;2023-05-18T02:34:12;7.80;99.90
32187;DHT22;18686;53.084;8.872;2023-05-18T02:36:42;7.80;99.90
32187;DHT22;18686;53.084;8.872;2023-05-18T02:39:12;7.90;99.90
32187;DHT22;18686;53.084;8.872;2023-05-18T02:41:40;7.90;99.90
32187;DHT22;18686;53.084;8.872;2023-05-18T02:44:08;7.90;99.90
32187;DHT22;18686;53.084;8.872;2023-05-18T02:46:39;7.90;99.90
32187;DHT22;18686;53.084;8.872;2023-05-18T02:49:07;8.00;99.90
32187;DHT22;18686;53.084;8.872;2023-05-18T02:51:36;8.00;99.90
32187;DHT22;18686;53.084;8.872;2023-05-18T02:54:04;8.00;99.90
32187;DHT22;18686;53.084;8.872;2023-05-18T02:56:35;8.00;99.90
32187;DHT22;18686;53.084;8.872;2023-05-18T02:59:27;8.00;99.90
32187;DHT22;18686;53.084;8.872;2023-05-18T03:01:56;8.00;99.90
32187;DHT22;18686;53.084;8.872;2023-05-18T03:04:25;8.10;99.90
32187;DHT22;18686;53.084;8.872;2023-05-18T03:06:55;8.10;99.90
32187;DHT22;18686;53.084;8.872;2023-05-18T03:09:24;8.10;99.90
32187;DHT22;18686;53.084;8.872;2023-05-18T03:11:54;8.10;99.90
32187;DHT22;18686;53.084;8.872;2023-05-18T03:14:22;8.10;99.90
32187;DHT22;18686;53.084;8.872;2023-05-18T03:16:53;8.10;99.90
32187;DHT22;18686;53.084;8.872;2023-05-18T03:19:25;8.10;99.90
32187;DHT22;18686;53.084;8.872;2023-05-18T03:21:54;8.10;99.90
32187;DHT22;18686;53.084;8.872;2023-05-18T03:24:24;8.10;99.90
32187;DHT22;18686;53.084;8.872;2023-05-18T03:26:57;8.10;99.90
32187;DHT22;18686;53.084;8.872;2023-05-18T03:29:27;8.10;99.90
32187;DHT22;18686;53.084;8.872;2023-05-18T03:32:00;8.10;99.90
32187;DHT22;18686;53.084;8.872;2023-05-18T03:34:30;8.10;99.90
32187;DHT22;18686;53.084;8.872;2023-05-18T03:36:58;8.10;99.90
32187;DHT22;18686;53.084;8.872;2023-05-18T03:39:29;8.10;99.90
32187;DHT22;18686;53.084;8.872;2023-05-18T03:41:57;8.10;99.90
32187;DHT22;18686;53.084;8.872;2023-05-18T03:44:25;8.20;99.90
32187;DHT22;18686;53.084;8.872;2023-05-18T03:46:54;8.20;99.90
32187;DHT22;18686;53.084;8.872;2023-05-18T03:49:22;8.20;99.90
32187;DHT22;18686;53.084;8.872;2023-05-18T03:51:53;8.20;99.90
32187;DHT22;18686;53.084;8.872;2023-05-18T03:54:22;8.20;99.60
32187;DHT22;18686;53.084;8.872;2023-05-18T03:56:51;8.20;99.70
32187;DHT22;18686;53.084;8.872;2023-05-18T03:59:19;8.30;99.70
32187;DHT22;18686;53.084;8.872;2023-05-18T04:01:48;8.30;99.30
32187;DHT22;18686;53.084;8.872;2023-05-18T04:04:21;8.40;99.10
32187;DHT22;18686;53.084;8.872;2023-05-18T04:06:53;8.40;99.10
32187;DHT22;18686;53.084;8.872;2023-05-18T04:09:21;8.40;98.80
32187;DHT22;18686;53.084;8.872;2023-05-18T04:11:50;8.50;98.60
32187;DHT22;18686;53.084;8.872;2023-05-18T04:14:18;8.50;98.20
32187;DHT22;18686;53.084;8.872;2023-05-18T04:16:47;8.50;98.40
32187;DHT22;18686;53.084;8.872;2023-05-18T04:19:15;8.60;98.40
32187;DHT22;18686;53.084;8.872;2023-05-18T04:21:45;8.60;98.10
32187;DHT22;18686;53.084;8.872;2023-05-18T04:24:14;8.70;97.90
32187;DHT22;18686;53.084;8.872;2023-05-18T04:26:42;8.70;97.10
32187;DHT22;18686;53.084;8.872;2023-05-18T04:29:11;8.80;97.30
32187;DHT22;18686;53.084;8.872;2023-05-18T04:31:39;8.80;97.00
32187;DHT22;18686;53.084;8.872;2023-05-18T04:34:11;8.90;96.90
32187;DHT22;18686;53.084;8.872;2023-05-18T04:36:40;8.90;96.30
32187;DHT22;18686;53.084;8.872;2023-05-18T04:39:11;9.00;96.40
32187;DHT22;18686;53.084;8.872;2023-05-18T04:41:41;9.10;96.20
32187;DHT22;18686;53.084;8.872;2023-05-18T04:44:10;9.10;95.70
32187;DHT22;18686;53.084;8.872;2023-05-18T04:46:40;9.20;95.50
32187;DHT22;18686;53.084;8.872;2023-05-18T04:49:08;9.30;95.40
32187;DHT22;18686;53.084;8.872;2023-05-18T04:51:37;9.30;95.00
32187;DHT22;18686;53.084;8.872;2023-05-18T04:54:08;9.40;94.70
32187;DHT22;18686;53.084;8.872;2023-05-18T04:56:36;9.50;94.20
32187;DHT22;18686;53.084;8.872;2023-05-18T04:59:07;9.60;94.00
32187;DHT22;18686;53.084;8.872;2023-05-18T05:01:36;9.70;93.30
32187;DHT22;18686;53.084;8.872;2023-05-18T05:04:05;9.70;93.00
32187;DHT22;18686;53.084;8.872;2023-05-18T05:06:33;9.80;92.70
32187;DHT22;18686;53.084;8.872;2023-05-18T05:09:01;9.90;92.60
32187;DHT22;18686;53.084;8.872;2023-05-18T05:11:30;9.90;92.30
32187;DHT22;18686;53.084;8.872;2023-05-18T05:14:01;10.00;91.90
32187;DHT22;18686;53.084;8.872;2023-05-18T05:16:31;10.10;91.40
32187;DHT22;18686;53.084;8.872;2023-05-18T05:18:59;10.20;90.80
32187;DHT22;18686;53.084;8.872;2023-05-18T05:21:28;10.20;90.30
32187;DHT22;18686;53.084;8.872;2023-05-18T05:23:59;10.30;90.30
32187;DHT22;18686;53.084;8.872;2023-05-18T05:26:32;10.40;88.80
32187;DHT22;18686;53.084;8.872;2023-05-18T05:29:01;10.50;86.30
32187;DHT22;18686;53.084;8.872;2023-05-18T05:31:30;10.60;85.80
32187;DHT22;18686;53.084;8.872;2023-05-18T05:34:00;10.60;84.90
32187;DHT22;18686;53.084;8.872;2023-05-18T05:36:28;10.80;84.20
32187;DHT22;18686;53.084;8.872;2023-05-18T05:38:57;10.90;83.70
32187;DHT22;18686;53.084;8.872;2023-05-18T05:41:26;11.00;83.40
32187;DHT22;18686;53.084;8.872;2023-05-18T05:43:54;11.10;81.50
32187;DHT22;18686;53.084;8.872;2023-05-18T05:46:23;11.10;81.10
32187;DHT22;18686;53.084;8.872;2023-05-18T05:48:53;11.30;79.40
32187;DHT22;18686;53.084;8.872;2023-05-18T05:51:25;11.30;79.00
32187;DHT22;18686;53.084;8.872;2023-05-18T05:53:53;11.40;77.80
32187;DHT22;18686;53.084;8.872;2023-05-18T05:56:21;11.50;76.20
32187;DHT22;18686;53.084;8.872;2023-05-18T05:58:50;11.60;75.50
32187;DHT22;18686;53.084;8.872;2023-05-18T06:01:18;11.70;74.20
32187;DHT22;18686;53.084;8.872;2023-05-18T06:03:47;11.70;73.70
32187;DHT22;18686;53.084;8.872;2023-05-18T06:06:17;11.80;72.60
32187;DHT22;18686;53.084;8.872;2023-05-18T06:08:46;11.90;71.40
32187;DHT22;18686;53.084;8.872;2023-05-18T06:11:16;11.90;68.90
32187;DHT22;18686;53.084;8.872;2023-05-18T06:13:45;12.00;68.10
32187;DHT22;18686;53.084;8.872;2023-05-18T06:16:13;12.10;68.20
32187;DHT22;18686;53.084;8.872;2023-05-18T06:18:41;12.20;67.00
32187;DHT22;18686;53.084;8.872;2023-05-18T06:21:10;12.20;66.60
32187;DHT22;18686;53.084;8.872;2023-05-18T06:23:39;12.30;66.40
32187;DHT22;18686;53.084;8.872;2023-05-18T06:26:30;12.40;66.10
32187;DHT22;18686;53.084;8.872;2023-05-18T06:29:16;12.50;66.30
32187;DHT22;18686;53.084;8.872;2023-05-18T06:32:03;12.60;65.20
32187;DHT22;18686;53.084;8.872;2023-05-18T06:34:37;12.60;64.80
32187;DHT22;18686;53.084;8.872;2023-05-18T06:37:06;12.80;63.60
32187;DHT22;18686;53.084;8.872;2023-05-18T06:39:35;12.80;64.10
32187;DHT22;18686;53.084;8.872;2023-05-18T06:42:06;12.90;63.00
32187;DHT22;18686;53.084;8.872;2023-05-18T06:44:34;13.00;62.70
32187;DHT22;18686;53.084;8.872;2023-05-18T06:47:09;13.20;61.20
32187;DHT22;18686;53.084;8.872;2023-05-18T06:49:37;13.30;61.20
32187;DHT22;18686;53.084;8.872;2023-05-18T06:52:06;13.50;60.40
32187;DHT22;18686;53.084;8.872;2023-05-18T06:54:37;13.70;59.30
32187;DHT22;18686;53.084;8.872;2023-05-18T06:57:05;13.90;58.70
32187;DHT22;18686;53.084;8.872;2023-05-18T06:59:34;14.00;57.40
32187;DHT22;18686;53.084;8.872;2023-05-18T07:02:03;14.20;57.30
32187;DHT22;18686;53.084;8.872;2023-05-18T07:04:32;14.40;56.80
32187;DHT22;18686;53.084;8.872;2023-05-18T07:07:00;14.60;55.60
32187;DHT22;18686;53.084;8.872;2023-05-18T07:09:28;14.60;53.40
32187;DHT22;18686;53.084;8.872;2023-05-18T07:11:58;14.70;54.10
32187;DHT22;18686;53.084;8.872;2023-05-18T07:14:26;14.80;54.30
32187;DHT22;18686;53.084;8.872;2023-05-18T07:16:55;15.00;53.60
32187;DHT22;18686;53.084;8.872;2023-05-18T07:19:23;15.10;52.90
32187;DHT22;18686;53.084;8.872;2023-05-18T07:21:51;15.30;51.90
32187;DHT22;18686;53.084;8.872;2023-05-18T07:24:19;15.40;50.40
32187;DHT22;18686;53.084;8.872;2023-05-18T07:26:48;15.40;51.00
32187;DHT22;18686;53.084;8.872;2023-05-18T07:29:17;15.60;50.00
32187;DHT22;18686;53.084;8.872;2023-05-18T07:31:46;15.80;50.50
32187;DHT22;18686;53.084;8.872;2023-05-18T07:34:14;15.90;50.40
32187;DHT22;18686;53.084;8.872;2023-05-18T07:36:42;16.00;49.70
32187;DHT22;18686;53.084;8.872;2023-05-18T07:39:11;16.20;49.50
32187;DHT22;18686;53.084;8.872;2023-05-18T07:41:45;16.30;48.00
32187;DHT22;18686;53.084;8.872;2023-05-18T07:44:14;16.40;48.30
32187;DHT22;18686;53.084;8.872;2023-05-18T07:46:44;16.50;48.10
32187;DHT22;18686;53.084;8.872;2023-05-18T07:49:12;16.70;47.80
32187;DHT22;18686;53.084;8.872;2023-05-18T07:51:40;16.90;47.20
32187;DHT22;18686;53.084;8.872;2023-05-18T07:54:09;17.00;46.00
32187;DHT22;18686;53.084;8.872;2023-05-18T07:56:37;17.10;46.40
32187;DHT22;18686;53.084;8.872;2023-05-18T07:59:07;17.20;45.30
32187;DHT22;18686;53.084;8.872;2023-05-18T08:01:36;17.40;44.80
32187;DHT22;18686;53.084;8.872;2023-05-18T08:04:05;17.50;44.10
32187;DHT22;18686;53.084;8.872;2023-05-18T08:06:34;17.60;43.80
32187;DHT22;18686;53.084;8.872;2023-05-18T08:09:02;17.90;44.60
32187;DHT22;18686;53.084;8.872;2023-05-18T08:11:31;17.90;44.20
32187;DHT22;18686;53.084;8.872;2023-05-18T08:13:59;18.20;43.20
32187;DHT22;18686;53.084;8.872;2023-05-18T08:16:27;18.40;42.60
32187;DHT22;18686;53.084;8.872;2023-05-18T08:18:56;18.50;42.60
32187;DHT22;18686;53.084;8.872;2023-05-18T08:21:25;18.70;42.60
32187;DHT22;18686;53.084;8.872;2023-05-18T08:23:54;18.70;42.00
32187;DHT22;18686;53.084;8.872;2023-05-18T08:26:22;18.90;41.60
32187;DHT22;18686;53.084;8.872;2023-05-18T08:28:52;19.00;41.30
32187;DHT22;18686;53.084;8.872;2023-05-18T08:31:21;19.20;41.40
32187;DHT22;18686;53.084;8.872;2023-05-18T08:33:49;19.70;42.00
32187;DHT22;18686;53.084;8.872;2023-05-18T08:36:17;19.90;40.10
32187;DHT22;18686;53.084;8.872;2023-05-18T08:38:47;20.30;39.40
32187;DHT22;18686;53.084;8.872;2023-05-18T08:41:19;20.70;39.10
32187;DHT22;18686;53.084;8.872;2023-05-18T08:43:55;21.30;38.00
32187;DHT22;18686;53.084;8.872;2023-05-18T08:46:27;22.00;37.00
32187;DHT22;18686;53.084;8.872;2023-05-18T08:48:57;22.80;35.80
32187;DHT22;18686;53.084;8.872;2023-05-18T08:51:28;23.40;35.00
32187;DHT22;18686;53.084;8.872;2023-05-18T08:53:59;23.80;34.00
32187;DHT22;18686;53.084;8.872;2023-05-18T08:56:30;24.50;33.00
32187;DHT22;18686;53.084;8.872;2023-05-18T08:58:59;24.60;31.00
32187;DHT22;18686;53.084;8.872;2023-05-18T09:01:31;24.60;31.20
32187;DHT22;18686;53.084;8.872;2023-05-18T09:04:00;24.80;31.50
32187;DHT22;18686;53.084;8.872;2023-05-18T09:06:29;24.80;31.50
32187;DHT22;18686;53.084;8.872;2023-05-18T09:09:01;24.80;30.30
32187;DHT22;18686;53.084;8.872;2023-05-18T09:11:33;24.90;31.60
32187;DHT22;18686;53.084;8.872;2023-05-18T09:14:01;24.50;30.80
32187;DHT22;18686;53.084;8.872;2023-05-18T09:16:30;24.80;30.70
32187;DHT22;18686;53.084;8.872;2023-05-18T09:18:59;25.10;30.00
32187;DHT22;18686;53.084;8.872;2023-05-18T09:21:29;25.30;30.00
32187;DHT22;18686;53.084;8.872;2023-05-18T09:23:58;25.10;29.60
32187;DHT22;18686;53.084;8.872;2023-05-18T09:26:28;25.20;30.50
32187;DHT22;18686;53.084;8.872;2023-05-18T09:28:57;25.40;30.10
32187;DHT22;18686;53.084;8.872;2023-05-18T09:31:26;25.50;29.90
32187;DHT22;18686;53.084;8.872;2023-05-18T09:33:58;25.30;31.00
32187;DHT22;18686;53.084;8.872;2023-05-18T09:36:27;25.30;30.20
32187;DHT22;18686;53.084;8.872;2023-05-18T09:38:56;24.80;29.70
32187;DHT22;18686;53.084;8.872;2023-05-18T09:41:25;24.60;30.10
32187;DHT22;18686;53.084;8.872;2023-05-18T09:43:55;24.70;30.20
32187;DHT22;18686;53.084;8.872;2023-05-18T09:46:24;24.80;30.20
32187;DHT22;18686;53.084;8.872;2023-05-18T09:48:54;24.70;31.20
32187;DHT22;18686;53.084;8.872;2023-05-18T09:51:23;24.80;30.70
32187;DHT22;18686;53.084;8.872;2023-05-18T09:53:55;24.80;30.60
32187;DHT22;18686;53.084;8.872;2023-05-18T09:56:25;24.70;30.60
32187;DHT22;18686;53.084;8.872;2023-05-18T09:58:53;24.60;30.80
32187;DHT22;18686;53.084;8.872;2023-05-18T10:01:23;25.10;30.40
32187;DHT22;18686;53.084;8.872;2023-05-18T10:04:01;25.90;30.10
32187;DHT22;18686;53.084;8.872;2023-05-18T10:06:30;26.70;30.00
32187;DHT22;18686;53.084;8.872;2023-05-18T10:09:00;27.80;29.50
32187;DHT22;18686;53.084;8.872;2023-05-18T10:11:31;28.60;28.70
32187;DHT22;18686;53.084;8.872;2023-05-18T10:13:59;28.80;27.70
32187;DHT22;18686;53.084;8.872;2023-05-18T10:16:30;28.90;28.20
32187;DHT22;18686;53.084;8.872;2023-05-18T10:19:02;29.40;27.80
32187;DHT22;18686;53.084;8.872;2023-05-18T10:21:33;29.80;27.60
32187;DHT22;18686;53.084;8.872;2023-05-18T10:24:05;30.40;27.20
32187;DHT22;18686;53.084;8.872;2023-05-18T10:26:36;31.20;26.90
32187;DHT22;18686;53.084;8.872;2023-05-18T10:29:06;31.60;26.40
32187;DHT22;18686;53.084;8.872;2023-05-18T10:31:37;31.80;25.70
32187;DHT22;18686;53.084;8.872;2023-05-18T10:34:07;32.30;25.80
32187;DHT22;18686;53.084;8.872;2023-05-18T10:36:36;32.60;25.60
32187;DHT22;18686;53.084;8.872;2023-05-18T10:39:05;32.00;25.70
32187;DHT22;18686;53.084;8.872;2023-05-18T10:41:36;32.70;25.30
32187;DHT22;18686;53.084;8.872;2023-05-18T10:44:05;33.60;25.00
32187;DHT22;18686;53.084;8.872;2023-05-18T10:46:35;35.20;24.90
32187;DHT22;18686;53.084;8.872;2023-05-18T10:49:04;36.20;24.10
32187;DHT22;18686;53.084;8.872;2023-05-18T10:51:40;37.00;23.50
32187;DHT22;18686;53.084;8.872;2023-05-18T10:54:11;38.30;23.10
32187;DHT22;18686;53.084;8.872;2023-05-18T10:56:43;39.40;22.70
32187;DHT22;18686;53.084;8.872;2023-05-18T10:59:14;40.20;22.50
32187;DHT22;18686;53.084;8.872;2023-05-18T11:01:44;41.00;22.40
32187;DHT22;18686;53.084;8.872;2023-05-18T11:04:14;41.70;21.60
32187;DHT22;18686;53.084;8.872;2023-05-18T11:06:53;41.90;21.90
32187;DHT22;18686;53.084;8.872;2023-05-18T11:09:22;42.00;21.30
32187;DHT22;18686;53.084;8.872;2023-05-18T11:11:52;42.20;21.50
32187;DHT22;18686;53.084;8.872;2023-05-18T11:14:25;42.30;21.50
32187;DHT22;18686;53.084;8.872;2023-05-18T11:17:14;42.70;20.90
32187;DHT22;18686;53.084;8.872;2023-05-18T11:20:12;41.80;21.50
32187;DHT22;18686;53.084;8.872;2023-05-18T11:22:48;42.20;21.40
32187;DHT22;18686;53.084;8.872;2023-05-18T11:25:41;41.70;21.50
32187;DHT22;18686;53.084;8.872;2023-05-18T11:28:11;40.40;21.30
32187;DHT22;18686;53.084;8.872;2023-05-18T11:30:49;40.90;21.50
32187;DHT22;18686;53.084;8.872;2023-05-18T11:33:28;41.00;21.00
32187;DHT22;18686;53.084;8.872;2023-05-18T11:36:03;41.60;21.10
32187;DHT22;18686;53.084;8.872;2023-05-18T11:38:52;42.80;21.00
32187;DHT22;18686;53.084;8.872;2023-05-18T11:41:28;43.70;21.10
32187;DHT22;18686;53.084;8.872;2023-05-18T11:44:05;44.60;20.90
32187;DHT22;18686;53.084;8.872;2023-05-18T11:46:36;45.80;20.40
32187;DHT22;18686;53.084;8.872;2023-05-18T11:49:06;45.90;20.50
32187;DHT22;18686;53.084;8.872;2023-05-18T11:51:57;46.20;20.30
32187;DHT22;18686;53.084;8.872;2023-05-18T11:54:27;46.40;20.00
32187;DHT22;18686;53.084;8.872;2023-05-18T11:57:00;47.10;20.00
32187;DHT22;18686;53.084;8.872;2023-05-18T11:59:30;47.60;20.10
32187;DHT22;18686;53.084;8.872;2023-05-18T12:02:00;47.90;20.00
32187;DHT22;18686;53.084;8.872;2023-05-18T12:04:31;48.10;19.90
32187;DHT22;18686;53.084;8.872;2023-05-18T12:07:04;48.60;19.90
32187;DHT22;18686;53.084;8.872;2023-05-18T12:09:32;48.40;19.80
32187;DHT22;18686;53.084;8.872;2023-05-18T12:12:01;47.30;19.80
32187;DHT22;18686;53.084;8.872;2023-05-18T12:14:29;47.30;20.30
32187;DHT22;18686;53.084;8.872;2023-05-18T12:16:59;47.50;20.00
32187;DHT22;18686;53.084;8.872;2023-05-18T12:19:35;47.80;19.90
32187;DHT22;18686;53.084;8.872;2023-05-18T12:22:03;47.30;20.00
32187;DHT22;18686;53.084;8.872;2023-05-18T12:24:32;48.00;19.80
32187;DHT22;18686;53.084;8.872;2023-05-18T12:27:00;48.70;19.80
32187;DHT22;18686;53.084;8.872;2023-05-18T12:29:33;49.00;19.50
32187;DHT22;18686;53.084;8.872;2023-05-18T12:32:07;48.20;19.10
32187;DHT22;18686;53.084;8.872;2023-05-18T12:34:38;47.80;19.20
32187;DHT22;18686;53.084;8.872;2023-05-18T12:37:08;47.80;19.20
32187;DHT22;18686;53.084;8.872;2023-05-18T12:39:36;47.60;19.40
32187;DHT22;18686;53.084;8.872;2023-05-18T12:42:09;48.20;19.70
32187;DHT22;18686;53.084;8.872;2023-05-18T12:44:37;48.80;19.60
32187;DHT22;18686;53.084;8.872;2023-05-18T12:47:06;49.10;19.40
32187;DHT22;18686;53.084;8.872;2023-05-18T12:49:41;49.40;19.40
32187;DHT22;18686;53.084;8.872;2023-05-18T12:52:11;49.50;19.40
32187;DHT22;18686;53.084;8.872;2023-05-18T12:54:54;49.50;19.40
32187;DHT22;18686;53.084;8.872;2023-05-18T12:57:25;49.90;19.30
32187;DHT22;18686;53.084;8.872;2023-05-18T12:59:57;50.00;19.30
32187;DHT22;18686;53.084;8.872;2023-05-18T13:02:30;50.10;19.10
32187;DHT22;18686;53.084;8.872;2023-05-18T13:05:05;50.30;19.10
32187;DHT22;18686;53.084;8.872;2023-05-18T13:07:35;50.20;19.70
32187;DHT22;18686;53.084;8.872;2023-05-18T13:10:05;50.00;19.00
32187;DHT22;18686;53.084;8.872;2023-05-18T13:12:43;50.10;19.10
32187;DHT22;18686;53.084;8.872;2023-05-18T13:15:13;50.10;19.30
32187;DHT22;18686;53.084;8.872;2023-05-18T13:17:48;50.10;19.20
32187;DHT22;18686;53.084;8.872;2023-05-18T13:20:22;49.90;19.50
32187;DHT22;18686;53.084;8.872;2023-05-18T13:22:51;49.50;19.50
32187;DHT22;18686;53.084;8.872;2023-05-18T13:25:21;49.20;19.10
32187;DHT22;18686;53.084;8.872;2023-05-18T13:27:50;49.30;19.30
32187;DHT22;18686;53.084;8.872;2023-05-18T13:30:21;49.40;19.30
32187;DHT22;18686;53.084;8.872;2023-05-18T13:32:49;49.40;19.30
32187;DHT22;18686;53.084;8.872;2023-05-18T13:35:18;49.70;19.30
32187;DHT22;18686;53.084;8.872;2023-05-18T13:37:49;49.90;19.20
32187;DHT22;18686;53.084;8.872;2023-05-18T13:40:18;49.80;19.20
32187;DHT22;18686;53.084;8.872;2023-05-18T13:42:47;48.90;19.10
32187;DHT22;18686;53.084;8.872;2023-05-18T13:45:15;49.00;19.40
32187;DHT22;18686;53.084;8.872;2023-05-18T13:47:43;49.10;19.10
32187;DHT22;18686;53.084;8.872;2023-05-18T13:50:17;49.50;19.20
32187;DHT22;18686;53.084;8.872;2023-05-18T13:52:45;49.50;19.10
32187;DHT22;18686;53.084;8.872;2023-05-18T13:55:15;48.80;19.00
32187;DHT22;18686;53.084;8.872;2023-05-18T13:57:44;48.60;19.10
32187;DHT22;18686;53.084;8.872;2023-05-18T14:00:13;48.60;19.10
32187;DHT22;18686;53.084;8.872;2023-05-18T14:02:43;48.60;19.10
32187;DHT22;18686;53.084;8.872;2023-05-18T14:05:13;48.50;19.10
32187;DHT22;18686;53.084;8.872;2023-05-18T14:07:42;48.40;19.10
32187;DHT22;18686;53.084;8.872;2023-05-18T14:10:11;48.20;19.20
32187;DHT22;18686;53.084;8.872;2023-05-18T14:12:41;47.90;19.20
32187;DHT22;18686;53.084;8.872;2023-05-18T14:15:10;47.60;19.20
32187;DHT22;18686;53.084;8.872;2023-05-18T14:17:40;47.10;19.30
32187;DHT22;18686;53.084;8.872;2023-05-18T14:20:09;46.30;19.20
32187;DHT22;18686;53.084;8.872;2023-05-18T14:22:37;44.90;19.10
32187;DHT22;18686;53.084;8.872;2023-05-18T14:25:06;43.20;19.70
32187;DHT22;18686;53.084;8.872;2023-05-18T14:27:35;41.70;20.10
32187;DHT22;18686;53.084;8.872;2023-05-18T14:30:06;39.60;20.60
32187;DHT22;18686;53.084;8.872;2023-05-18T14:32:34;37.60;21.30
32187;DHT22;18686;53.084;8.872;2023-05-18T14:35:03;35.50;22.20
32187;DHT22;18686;53.084;8.872;2023-05-18T14:37:31;33.60;22.70
32187;DHT22;18686;53.084;8.872;2023-05-18T14:39:59;31.90;23.70
32187;DHT22;18686;53.084;8.872;2023-05-18T14:42:28;30.30;24.30
32187;DHT22;18686;53.084;8.872;2023-05-18T14:44:56;28.90;24.80
32187;DHT22;18686;53.084;8.872;2023-05-18T14:47:30;27.60;25.90
32187;DHT22;18686;53.084;8.872;2023-05-18T14:49:58;26.50;26.60
32187;DHT22;18686;53.084;8.872;2023-05-18T14:52:26;25.50;27.50
32187;DHT22;18686;53.084;8.872;2023-05-18T14:54:54;24.80;28.30
32187;DHT22;18686;53.084;8.872;2023-05-18T14:57:23;24.00;29.30
32187;DHT22;18686;53.084;8.872;2023-05-18T14:59:52;23.40;29.10
32187;DHT22;18686;53.084;8.872;2023-05-18T15:02:21;22.70;29.70
32187;DHT22;18686;53.084;8.872;2023-05-18T15:04:50;22.20;30.50
32187;DHT22;18686;53.084;8.872;2023-05-18T15:07:19;21.70;30.70
32187;DHT22;18686;53.084;8.872;2023-05-18T15:09:47;21.20;31.40
32187;DHT22;18686;53.084;8.872;2023-05-18T15:12:15;20.90;31.70
32187;DHT22;18686;53.084;8.872;2023-05-18T15:14:45;20.50;32.80
32187;DHT22;18686;53.084;8.872;2023-05-18T15:17:13;20.20;33.00
32187;DHT22;18686;53.084;8.872;2023-05-18T15:19:41;19.90;34.90
32187;DHT22;18686;53.084;8.872;2023-05-18T15:22:11;19.70;34.60
32187;DHT22;18686;53.084;8.872;2023-05-18T15:24:39;19.50;34.30
32187;DHT22;18686;53.084;8.872;2023-05-18T15:27:07;19.40;34.80
32187;DHT22;18686;53.084;8.872;2023-05-18T15:29:36;19.20;34.90
32187;DHT22;18686;53.084;8.872;2023-05-18T15:32:05;19.00;34.80
32187;DHT22;18686;53.084;8.872;2023-05-18T15:34:33;18.80;35.70
32187;DHT22;18686;53.084;8.872;2023-05-18T15:37:02;18.70;36.90
32187;DHT22;18686;53.084;8.872;2023-05-18T15:39:31;18.50;37.50
32187;DHT22;18686;53.084;8.872;2023-05-18T15:41:59;18.40;36.60
32187;DHT22;18686;53.084;8.872;2023-05-18T15:44:27;18.30;36.70
32187;DHT22;18686;53.084;8.872;2023-05-18T15:46:56;18.20;36.60
32187;DHT22;18686;53.084;8.872;2023-05-18T15:49:24;18.10;37.40
32187;DHT22;18686;53.084;8.872;2023-05-18T15:51:52;18.00;38.70
32187;DHT22;18686;53.084;8.872;2023-05-18T15:54:20;17.90;38.30